EW3696 Guayanilla PR US current weather conditions

sailwx.info

Wind from 018 at 0 knots gusting 2

Air temperature 20.0° C
Dewpoint 18.1° C

Last reported at 2019-Dec-07 06:30 UTC.
Time now 2019-Dec-07 08:40 UTC

Location: N 18°02' W 066°48'.
View on Google Maps.

See reports from other nearby stations

  
Tides and Currents Weather Stations Pressure Air Temp Water Temp Dewpoint Dewpoint Depression Visibility Wind Speed Wind Dir Waves Ship Positions
date/time (UTC)wind fromknots sea level pressurealtimeterstation pressurevisibilityair tempwater tempwave heightnotes
2019-Dec-07 06:30 018 0 gusting 2 20.0
2019-Dec-07 06:01 347 0 gusting 3 20.6
2019-Dec-07 05:45 025 20.6
2019-Dec-07 05:32 309 0 gusting 2 20.6
2019-Dec-07 05:01 329 20.6
2019-Dec-07 04:33 341 20.6
2019-Dec-07 04:17 012 21.1
2019-Dec-07 00:01 005 24.4
2019-Dec-06 23:17 092 26.1
2019-Dec-06 22:02 095 27.2
2019-Dec-06 18:01 159 6 gusting 13 30.0
2019-Dec-06 17:00 123 6 gusting 12 30.6
2019-Dec-06 14:30 177 4 gusting 9 28.9
2019-Dec-06 09:00 024 22.2
2019-Dec-06 06:00 005 22.8
2019-Dec-06 05:45 331 0 gusting 2 22.8
2019-Dec-06 05:16 333 0 gusting 1 23.3
2019-Dec-06 05:02 018 23.3
2019-Dec-06 04:46 038 0 gusting 1 23.3
2019-Dec-06 04:31 026 0 gusting 2 23.3
2019-Dec-06 02:31 038 25.6
2019-Dec-06 00:17 048 26.1
2019-Dec-05 21:47 146 2 gusting 6 28.3
2019-Dec-05 19:15 115 6 gusting 13 30.0
2019-Dec-05 18:00 140 5 gusting 11 30.6
2019-Dec-05 17:16 145 5 gusting 12 30.6
2019-Dec-05 16:15 165 6 gusting 11 30.6
2019-Dec-05 16:00 149 6 gusting 13 30.6
2019-Dec-05 13:45 140 5 gusting 9 28.9
2019-Dec-05 13:30 171 2 gusting 8 28.3
2019-Dec-05 08:01 306 25.6